Time;durP1;ratioP1;P1;durP2;ratioP2;P2;SDS_P1;SDS_P2;PMS_P1;PMS_P2;Temp;Humidity;BMP_temperature;BMP_pressure;BME280_temperature;BME280_humidity;BME280_pressure;Samples;Min_cycle;Max_cycle;Signal;HPM_P1;HPM_P2
2022/09/12 00:01:19;;;;;;;6.53;5.00;;;;;;;14.64;100.00;99972.06;5032912;28;20077;-82
2022/09/12 00:03:51;;;;;;;6.70;5.00;;;;;;;14.56;100.00;99977.19;5033460;28;20076;-85
2022/09/12 00:06:21;;;;;;;6.95;4.82;;;;;;;14.51;100.00;99966.00;5037557;28;20046;-84
2022/09/12 00:08:50;;;;;;;7.03;4.88;;;;;;;14.53;100.00;99977.47;5037427;28;20049;-85
2022/09/12 00:11:18;;;;;;;7.10;4.88;;;;;;;14.50;100.00;99967.84;5038641;28;20111;-85
2022/09/12 00:13:47;;;;;;;10.57;5.10;;;;;;;14.52;100.00;99967.69;5039287;28;20049;-84
2022/09/12 00:16:19;;;;;;;8.02;4.97;;;;;;;14.50;100.00;99961.63;5039010;28;20049;-84
2022/09/12 00:18:47;;;;;;;6.00;4.55;;;;;;;14.52;100.00;99963.19;5038891;28;20420;-84
2022/09/12 00:21:16;;;;;;;7.32;4.10;;;;;;;14.53;100.00;99975.63;5045520;28;20124;-84
2022/09/12 00:23:45;;;;;;;7.32;4.55;;;;;;;14.43;100.00;99958.53;5053134;28;20072;-85
2022/09/12 00:26:13;;;;;;;6.10;4.35;;;;;;;14.40;100.00;99969.53;5054000;28;20049;-84
2022/09/12 00:28:42;;;;;;;7.40;4.50;;;;;;;14.45;100.00;99971.84;5049587;28;20115;-84
2022/09/12 00:31:13;;;;;;;6.30;4.60;;;;;;;14.44;100.00;99970.97;5036502;28;20107;-85
2022/09/12 00:33:43;;;;;;;8.93;4.80;;;;;;;14.41;100.00;99973.06;5036540;28;20054;-85
2022/09/12 00:36:15;;;;;;;7.22;4.70;;;;;;;14.45;100.00;99971.84;5034848;28;20077;-85
2022/09/12 00:38:44;;;;;;;6.47;4.35;;;;;;;14.45;100.00;99977.22;5037383;28;20041;-84
2022/09/12 00:41:17;;;;;;;5.45;4.30;;;;;;;14.41;100.00;99976.59;5036759;28;20050;-85
2022/09/12 00:43:47;;;;;;;5.78;4.25;;;;;;;14.39;100.00;99966.97;5036198;28;20069;-78
2022/09/12 00:46:26;;;;;;;6.95;4.38;;;;;;;14.32;100.00;99972.81;5035622;28;20053;-81
2022/09/12 00:48:59;;;;;;;5.15;3.90;;;;;;;14.35;100.00;99978.91;5035649;28;20492;-79
2022/09/12 00:51:30;;;;;;;7.18;4.93;;;;;;;14.30;100.00;99966.72;5035969;28;20079;-79
2022/09/12 00:54:02;;;;;;;6.43;4.75;;;;;;;14.30;100.00;99974.78;5035304;28;20054;-80
2022/09/12 00:56:31;;;;;;;6.47;4.57;;;;;;;14.33;100.00;99973.66;5036113;28;20051;-80
2022/09/12 00:59:04;;;;;;;7.00;4.63;;;;;;;14.26;100.00;99967.94;5034701;28;20080;-80
2022/09/12 01:01:32;;;;;;;;;;;;;;;14.19;100.00;99966.72;5036754;28;20068;-82
2022/09/12 01:04:03;;;;;;;7.22;5.15;;;;;;;14.25;100.00;99970.72;5036142;28;19928;-83
2022/09/12 01:06:36;;;;;;;6.05;4.85;;;;;;;14.29;100.00;99972.22;5039207;28;20052;-84
2022/09/12 01:09:05;;;;;;;7.15;4.75;;;;;;;14.28;100.00;99968.69;5041280;28;20081;-85
2022/09/12 01:11:36;;;;;;;6.00;4.63;;;;;;;14.22;100.00;99966.47;5040198;28;20045;-85
2022/09/12 01:14:05;;;;;;;7.55;4.75;;;;;;;14.23;100.00;99968.19;5038642;28;20492;-84
2022/09/12 01:16:36;;;;;;;6.65;4.95;;;;;;;14.20;100.00;99957.69;5040117;28;20060;-85
2022/09/12 01:19:25;;;;;;;7.05;4.75;;;;;;;14.21;100.00;99969.28;5051724;28;20026;-81
2022/09/12 01:22:07;;;;;;;5.78;4.47;;;;;;;14.16;100.00;99972.31;5057414;28;20036;-82
2022/09/12 01:25:08;;;;;;;6.85;4.55;;;;;;;14.20;100.00;99965.75;5058430;28;20052;-83
2022/09/12 01:27:46;;;;;;;6.18;4.85;;;;;;;14.17;100.00;99971.34;5016004;28;20037;-86
2022/09/12 01:30:25;;;;;;;6.75;5.20;;;;;;;14.09;100.00;99965.75;5056382;28;20072;-84
2022/09/12 01:33:19;;;;;;;7.75;5.00;;;;;;;14.11;100.00;99974.53;5054755;28;20064;-85
2022/09/12 01:36:04;;;;;;;7.47;5.30;;;;;;;14.11;100.00;99974.53;5046587;28;20049;-80
2022/09/12 01:38:39;;;;;;;6.97;5.30;;;;;;;14.02;100.00;99977.94;5035497;28;20448;-81
2022/09/12 01:41:15;;;;;;;9.07;5.60;;;;;;;14.01;100.00;99978.91;5035516;28;20124;-85
2022/09/12 01:43:50;;;;;;;6.40;4.90;;;;;;;13.97;100.00;99978.28;5035650;28;20064;-83
2022/09/12 01:46:28;;;;;;;8.80;6.05;;;;;;;13.97;100.00;99977.44;5035205;28;20535;-83
2022/09/12 01:49:02;;;;;;;7.38;5.57;;;;;;;13.90;100.00;99982.44;5035634;28;20396;-82
2022/09/12 01:51:35;;;;;;;8.50;5.55;;;;;;;13.91;100.00;99980.63;5035030;28;20049;-81
2022/09/12 01:54:06;;;;;;;;;;;;;;;13.92;100.00;99988.53;5034552;28;20057;-78
2022/09/12 01:56:38;;;;;;;6.85;5.40;;;;;;;13.88;100.00;99983.50;5033304;28;20439;-78
2022/09/12 01:59:12;;;;;;;7.18;5.40;;;;;;;13.86;100.00;99977.41;5033075;28;20049;-78
2022/09/12 02:01:47;;;;;;;8.35;5.35;;;;;;;13.83;100.00;99983.03;5034251;28;20128;-78
2022/09/12 02:04:19;;;;;;;7.95;5.35;;;;;;;13.79;100.00;99985.06;5034116;28;20076;-79
2022/09/12 02:06:51;;;;;;;7.05;5.68;;;;;;;13.82;100.00;99975.97;5033038;28;20128;-78
2022/09/12 02:09:23;;;;;;;7.03;5.35;;;;;;;13.87;100.00;99971.09;5033862;28;20128;-83
2022/09/12 02:11:56;;;;;;;8.32;5.68;;;;;;;13.78;100.00;99969.13;5033251;28;20418;-85
2022/09/12 02:14:27;;;;;;;7.80;5.20;;;;;;;13.82;100.00;99968.78;5034364;28;20037;-86
2022/09/12 02:17:01;;;;;;;7.45;5.03;;;;;;;13.87;100.00;99965.72;5034653;28;20045;-81
2022/09/12 02:19:36;;;;;;;6.75;5.50;;;;;;;13.81;100.00;99960.84;5034476;28;20049;-78
2022/09/12 02:22:06;;;;;;;8.82;5.60;;;;;;;13.82;100.00;99965.25;5033967;28;20045;-79
2022/09/12 02:24:38;;;;;;;7.00;5.30;;;;;;;13.82;100.00;99963.41;5033569;28;20049;-79
2022/09/12 02:27:12;;;;;;;7.18;5.32;;;;;;;13.72;100.00;99959.75;5033006;28;20083;-78
2022/09/12 02:29:42;;;;;;;8.02;5.55;;;;;;;13.74;100.00;99969.38;5034018;28;20049;-79
2022/09/12 02:32:21;;;;;;;7.43;5.05;;;;;;;13.80;100.00;99953.75;5033591;28;20140;-78
2022/09/12 02:34:58;;;;;;;7.43;5.05;;;;;;;13.83;100.00;99966.94;5033762;28;20045;-78
2022/09/12 02:37:37;;;;;;;7.60;5.78;;;;;;;13.82;100.00;99974.13;5034150;28;20054;-79
2022/09/12 02:40:07;;;;;;;9.60;5.72;;;;;;;13.78;100.00;99978.00;5033551;28;20045;-78
2022/09/12 02:42:36;;;;;;;10.43;6.43;;;;;;;13.89;100.00;99975.34;5033870;28;20041;-78
2022/09/12 02:45:05;;;;;;;8.18;5.70;;;;;;;13.80;100.00;99969.84;5033356;28;20044;-79
2022/09/12 02:47:38;;;;;;;9.40;5.93;;;;;;;13.80;100.00;99975.22;5033388;28;20045;-78
2022/09/12 02:50:08;;;;;;;9.73;6.53;;;;;;;13.70;100.00;99975.06;5033476;28;20047;-79
2022/09/12 02:52:36;;;;;;;9.82;6.55;;;;;;;13.73;100.00;99967.66;5033393;28;20129;-76
2022/09/12 02:55:07;;;;;;;9.23;6.90;;;;;;;13.73;100.00;99969.50;5033043;28;20562;-77
2022/09/12 02:57:35;;;;;;;9.48;6.47;;;;;;;13.65;100.00;99975.44;5033347;28;20436;-77
2022/09/12 03:00:05;;;;;;;10.15;6.75;;;;;;;13.55;100.00;99970.91;5033102;28;20048;-77
2022/09/12 03:02:54;;;;;;;10.32;6.88;;;;;;;13.59;100.00;99973.22;5033515;28;20124;-77
2022/09/12 03:05:31;;;;;;;9.32;6.95;;;;;;;13.63;100.00;99971.19;5032968;28;20881;-77
2022/09/12 03:08:12;;;;;;;10.55;6.97;;;;;;;13.59;100.00;99967.84;5033112;28;20428;-77
2022/09/12 03:10:59;;;;;;;9.57;7.45;;;;;;;13.60;100.00;99963.34;5033452;28;20075;-77
2022/09/12 03:13:33;;;;;;;8.77;6.63;;;;;;;13.66;100.00;99982.50;5033123;28;20073;-79
2022/09/12 03:16:12;;;;;;;10.40;7.30;;;;;;;13.72;100.00;99978.50;5033409;28;20057;-77
2022/09/12 03:18:51;;;;;;;10.65;7.05;;;;;;;13.62;100.00;99975.69;5033399;28;20051;-77
2022/09/12 03:21:28;;;;;;;11.32;7.45;;;;;;;13.68;100.00;99983.22;5033157;28;20044;-80
2022/09/12 03:24:11;;;;;;;10.57;8.02;;;;;;;13.64;100.00;99980.91;5033191;28;20042;-81
2022/09/12 03:26:44;;;;;;;13.02;7.80;;;;;;;13.59;100.00;99985.75;5033137;28;20139;-80
2022/09/12 03:29:13;;;;;;;;;;;;;;;13.55;100.00;99990.50;5033269;28;20401;-81
2022/09/12 03:31:50;;;;;;;10.65;7.50;;;;;;;13.62;100.00;99994.44;5033227;28;19921;-80
2022/09/12 03:34:20;;;;;;;11.75;7.65;;;;;;;13.64;100.00;99988.97;5048226;28;20046;-80
2022/09/12 03:36:49;;;;;;;12.32;7.70;;;;;;;13.59;100.00;99994.66;5033114;28;20084;-80
2022/09/12 03:39:17;;;;;;;11.30;7.70;;;;;;;13.62;100.00;99989.09;5035566;28;20041;-83
2022/09/12 03:41:45;;;;;;;10.82;7.30;;;;;;;13.60;100.00;99988.31;5037075;28;20052;-85
2022/09/12 03:44:13;;;;;;;10.77;7.47;;;;;;;13.58;100.00;99987.59;5037191;28;20568;-85
2022/09/12 03:46:41;;;;;;;10.73;7.07;;;;;;;13.59;100.00;99978.56;5037260;28;20049;-84
2022/09/12 03:49:10;;;;;;;10.32;7.40;;;;;;;13.45;100.00;99978.78;5036774;28;20041;-84
2022/09/12 03:51:40;;;;;;;10.43;7.47;;;;;;;13.62;100.00;99983.72;5037442;28;20041;-83
2022/09/12 03:54:08;;;;;;;9.10;6.97;;;;;;;13.54;100.00;99986.13;5036403;28;20061;-83
2022/09/12 03:56:36;;;;;;;10.85;6.85;;;;;;;13.62;100.00;99986.41;5037086;28;20487;-84
2022/09/12 03:59:05;;;;;;;9.38;6.35;;;;;;;13.56;100.00;99973.47;5037048;28;20045;-83
2022/09/12 04:01:34;;;;;;;10.32;6.63;;;;;;;13.55;100.00;99987.84;5035721;28;20052;-82
2022/09/12 04:04:02;;;;;;;10.23;6.75;;;;;;;13.55;100.00;99986.97;5036998;28;20049;-82
2022/09/12 04:06:31;;;;;;;10.80;7.07;;;;;;;13.44;100.00;99982.44;5036267;28;20124;-82
2022/09/12 04:09:00;;;;;;;9.88;6.70;;;;;;;13.55;100.00;99985.16;5035859;28;20050;-85
2022/09/12 04:11:28;;;;;;;10.80;7.20;;;;;;;13.51;100.00;99990.84;5036419;28;20060;-82
2022/09/12 04:13:57;;;;;;;9.45;6.68;;;;;;;13.53;100.00;99991.63;5036616;28;20432;-82
2022/09/12 04:16:25;;;;;;;9.38;6.45;;;;;;;13.57;100.00;99991.25;5036267;28;20404;-81
2022/09/12 04:18:54;;;;;;;10.00;6.70;;;;;;;13.62;100.00;99983.72;5036265;28;20050;-81
2022/09/12 04:21:24;;;;;;;10.63;6.50;;;;;;;13.61;100.00;99990.06;5035920;28;20045;-81
2022/09/12 04:23:52;;;;;;;10.23;6.32;;;;;;;13.50;100.00;99973.91;5036748;28;20072;-83
2022/09/12 04:26:22;;;;;;;10.57;6.80;;;;;;;13.52;100.00;99979.19;5036057;28;20494;-83
2022/09/12 04:28:53;;;;;;;9.10;6.50;;;;;;;13.60;100.00;99985.66;5035083;28;20052;-84
2022/09/12 04:31:22;;;;;;;9.60;6.70;;;;;;;13.51;100.00;99978.34;5036322;28;20101;-81
2022/09/12 04:33:54;;;;;;;11.40;6.70;;;;;;;13.60;100.00;99985.66;5036152;28;20084;-79
2022/09/12 04:36:23;;;;;;;8.88;6.10;;;;;;;13.65;100.00;99983.47;5035991;28;20049;-80
2022/09/12 04:38:51;;;;;;;10.27;6.60;;;;;;;13.61;100.00;99987.38;5034891;28;20049;-78
2022/09/12 04:41:23;;;;;;;8.75;5.70;;;;;;;13.65;100.00;99979.94;5035739;28;20045;-78
2022/09/12 04:43:53;;;;;;;9.23;5.72;;;;;;;13.73;100.00;99981.06;5035884;28;20045;-79
2022/09/12 04:46:21;;;;;;;8.43;5.72;;;;;;;13.72;100.00;99990.09;5035448;28;20446;-79
2022/09/12 04:48:49;;;;;;;7.82;5.50;;;;;;;13.79;100.00;99989.59;5036115;28;20049;-79
2022/09/12 04:51:26;;;;;;;7.63;5.43;;;;;;;13.83;100.00;99991.06;5033703;28;20057;-78
2022/09/12 04:53:56;;;;;;;8.63;5.60;;;;;;;13.90;100.00;99986.94;5035688;28;20501;-81
2022/09/12 04:56:26;;;;;;;10.02;5.57;;;;;;;14.01;100.00;99989.63;5034048;28;20537;-85
2022/09/12 04:58:57;;;;;;;8.40;5.47;;;;;;;13.93;100.00;99984.88;5034610;28;20053;-79
2022/09/12 05:01:25;;;;;;;8.20;5.45;;;;;;;14.09;100.00;100002.41;5035551;28;20037;-79
2022/09/12 05:03:54;;;;;;;9.20;5.80;;;;;;;14.10;100.00;99999.66;5034103;28;20140;-79
2022/09/12 05:06:24;;;;;;;9.65;6.25;;;;;;;14.16;100.00;99992.94;5035440;28;20060;-79
2022/09/12 05:08:54;;;;;;;11.13;5.68;;;;;;;14.18;100.00;99997.19;5034076;28;20500;-78
2022/09/12 05:11:24;;;;;;;9.95;6.13;;;;;;;14.11;100.00;100001.34;5034873;28;20080;-78
2022/09/12 05:14:14;;;;;;;10.70;5.75;;;;;;;14.18;100.00;99997.19;5035079;28;20042;-78
2022/09/12 05:16:42;;;;;;;9.10;6.03;;;;;;;14.22;100.00;100008.53;5034203;28;20295;-77
2022/09/12 05:19:16;;;;;;;7.90;5.68;;;;;;;14.32;100.00;100015.75;5034993;28;20042;-78
2022/09/12 05:21:44;;;;;;;8.75;5.53;;;;;;;14.48;100.00;100014.56;5035409;28;20041;-80
2022/09/12 05:24:12;;;;;;;10.45;5.97;;;;;;;14.46;100.00;100016.50;5037308;28;20041;-79
2022/09/12 05:26:40;;;;;;;8.43;5.32;;;;;;;14.59;100.00;100014.56;5036476;28;20049;-80
2022/09/12 05:29:08;;;;;;;7.93;5.57;;;;;;;14.68;100.00;100019.19;5035981;28;20052;-79
2022/09/12 05:31:37;;;;;;;9.32;5.30;;;;;;;14.88;100.00;100028.28;5034921;28;20048;-78
2022/09/12 05:34:06;;;;;;;8.80;5.40;;;;;;;14.87;100.00;100032.81;5034599;28;20077;-77
2022/09/12 05:36:34;;;;;;;8.23;5.97;;;;;;;14.93;100.00;100036.81;5034551;28;20120;-76
2022/09/12 05:39:03;;;;;;;9.20;5.60;;;;;;;14.94;100.00;100037.66;5034557;28;20041;-73
2022/09/12 05:41:33;;;;;;;8.05;5.38;;;;;;;14.96;100.00;100047.31;5032927;28;20045;-75
2022/09/12 05:44:03;;;;;;;8.23;5.32;;;;;;;14.94;100.00;100048.41;5034221;28;20049;-81
2022/09/12 05:46:36;;;;;;;11.10;6.20;;;;;;;15.01;100.00;100049.63;5032787;28;20052;-83
2022/09/12 05:49:07;;;;;;;9.48;5.88;;;;;;;14.80;100.00;100049.53;5034524;28;20038;-78
2022/09/12 05:51:37;;;;;;;8.73;5.97;;;;;;;14.68;100.00;100037.13;5032820;28;20049;-82
2022/09/12 05:54:07;;;;;;;9.57;6.22;;;;;;;14.86;100.00;100040.97;5032740;28;20075;-81
2022/09/12 05:56:39;;;;;;;8.90;6.00;;;;;;;14.98;100.00;100044.50;5032918;28;20045;-74
2022/09/12 05:59:11;;;;;;;8.70;6.47;;;;;;;15.13;100.00;100048.59;5033112;28;20042;-77
2022/09/12 06:01:40;;;;;;;9.65;6.03;;;;;;;15.17;100.00;100045.56;5033431;28;20168;-75
2022/09/12 06:04:09;;;;;;;12.60;6.10;;;;;;;15.37;100.00;100045.75;5034508;28;20051;-77
2022/09/12 06:06:40;;;;;;;10.20;6.28;;;;;;;15.14;100.00;100036.88;5033396;28;20041;-76
2022/09/12 06:09:11;;;;;;;9.98;6.72;;;;;;;15.33;100.00;100046.97;5034355;28;20037;-75
2022/09/12 06:11:43;;;;;;;8.85;5.95;;;;;;;15.15;100.00;100043.97;5033629;28;20064;-74
2022/09/12 06:14:13;;;;;;;10.35;6.35;;;;;;;15.33;100.00;100047.81;5034080;28;20068;-74
2022/09/12 06:16:42;;;;;;;10.15;6.55;;;;;;;15.40;100.00;100045.47;5032916;28;20053;-74
2022/09/12 06:19:15;;;;;;;10.63;6.07;;;;;;;15.38;100.00;100045.59;5034036;28;20045;-74
2022/09/12 06:21:44;;;;;;;9.52;6.13;;;;;;;15.61;100.00;100042.84;5033609;28;20427;-74
2022/09/12 06:24:12;;;;;;;9.45;5.78;;;;;;;15.39;100.00;100051.84;5034025;28;20045;-74
2022/09/12 06:26:42;;;;;;;10.52;6.03;;;;;;;15.33;100.00;100045.13;5033986;28;20037;-74
2022/09/12 06:29:12;;;;;;;10.82;6.63;;;;;;;15.62;100.00;100061.53;5033972;28;20046;-74
2022/09/12 06:31:42;;;;;;;10.20;6.65;;;;;;;15.76;100.00;100052.31;5034039;28;20041;-74
2022/09/12 06:34:12;;;;;;;9.63;6.55;;;;;;;15.70;100.00;100047.44;5032544;28;20050;-74
2022/09/12 06:36:44;;;;;;;10.95;7.30;;;;;;;15.97;100.00;100069.31;5033456;28;20507;-75
2022/09/12 06:39:13;;;;;;;9.95;6.80;;;;;;;16.02;100.00;100053.66;5033544;28;20049;-74
2022/09/12 06:41:41;;;;;;;9.73;6.22;;;;;;;16.66;100.00;100049.00;5033674;28;20046;-74
2022/09/12 06:44:14;;;;;;;9.20;6.60;;;;;;;16.55;100.00;100061.56;5033514;28;20042;-75
2022/09/12 06:46:43;;;;;;;9.32;6.53;;;;;;;16.51;100.00;100059.28;5033468;28;20045;-74
2022/09/12 06:49:12;;;;;;;14.38;7.10;;;;;;;16.99;100.00;100064.88;5033183;28;20069;-75
2022/09/12 06:51:42;;;;;;;10.57;6.03;;;;;;;16.99;100.00;100064.03;5031966;28;20049;-74
2022/09/12 06:54:12;;;;;;;9.93;6.30;;;;;;;16.79;100.00;100063.97;5032940;28;20057;-74
2022/09/12 06:56:40;;;;;;;9.80;6.82;;;;;;;16.47;100.00;100047.91;5031933;28;20451;-74
2022/09/12 06:59:09;;;;;;;10.05;6.30;;;;;;;16.42;100.00;100055.56;5033458;28;20073;-74
2022/09/12 07:01:38;;;;;;;8.23;5.90;;;;;;;16.58;100.00;100061.28;5032900;28;20466;-74
2022/09/12 07:04:07;;;;;;;9.27;5.97;;;;;;;16.26;100.00;100060.56;5033921;28;20042;-74
2022/09/12 07:06:37;;;;;;;9.38;6.47;;;;;;;16.39;100.00;100063.88;5033070;28;20088;-74
2022/09/12 07:09:09;;;;;;;8.85;5.75;;;;;;;16.65;100.00;100067.00;5032537;28;20053;-74
2022/09/12 07:11:39;;;;;;;9.52;5.75;;;;;;;16.59;100.00;100064.84;5032570;28;20466;-74
2022/09/12 07:14:10;;;;;;;9.20;5.85;;;;;;;16.70;100.00;100064.78;5032162;28;20050;-74
2022/09/12 07:16:38;;;;;;;9.10;6.18;;;;;;;16.74;100.00;100059.97;5032389;28;20496;-74
2022/09/12 07:19:08;;;;;;;9.75;5.50;;;;;;;16.58;100.00;100068.50;5032614;28;20095;-74
2022/09/12 07:21:38;;;;;;;7.63;5.30;;;;;;;16.54;100.00;100072.47;5032056;28;20046;-74
2022/09/12 07:24:10;;;;;;;9.98;6.97;;;;;;;16.69;100.00;100076.53;5031793;28;20096;-74
2022/09/12 07:26:40;;;;;;;12.25;6.60;;;;;;;16.89;100.00;100074.78;5032275;28;20048;-74
2022/09/12 07:29:15;;;;;;;11.60;6.93;;;;;;;16.94;100.00;100077.06;5031361;28;20053;-74
2022/09/12 07:32:04;;;;;;;8.75;6.50;;;;;;;17.03;100.00;100077.09;5032510;28;20068;-74
2022/09/12 07:34:33;;;;;;;8.90;5.88;;;;;;;16.95;100.00;100087.69;5032141;28;20057;-74
2022/09/12 07:37:01;;;;;;;9.20;6.15;;;;;;;17.12;100.00;100087.03;5032231;28;20041;-75
2022/09/12 07:39:31;;;;;;;10.43;6.35;;;;;;;17.13;100.00;100079.81;5032354;28;20500;-75
2022/09/12 07:42:00;;;;;;;8.23;5.95;;;;;;;17.38;100.00;100081.13;5032634;28;20053;-75
2022/09/12 07:44:28;;;;;;;10.02;5.90;;;;;;;17.23;100.00;100072.59;5032206;28;20111;-73
2022/09/12 07:46:56;;;;;;;10.40;5.97;;;;;;;17.30;100.00;100075.59;5032704;28;20447;-73
2022/09/12 07:49:25;;;;;;;9.48;5.80;;;;;;;17.31;100.00;100069.19;5032236;28;20049;-74
2022/09/12 07:51:54;;;;;;;9.55;5.53;;;;;;;17.12;100.00;100068.16;5032707;28;20376;-73
2022/09/12 07:54:22;;;;;;;7.80;5.28;;;;;;;17.13;100.00;100061.78;5032224;28;20049;-74
2022/09/12 07:56:51;;;;;;;10.27;5.60;;;;;;;17.28;100.00;100075.72;5032858;28;20049;-73
2022/09/12 07:59:20;;;;;;;8.07;5.18;;;;;;;17.32;100.00;100071.75;5032899;28;20054;-73
2022/09/12 08:02:13;;;;;;;8.13;5.18;;;;;;;17.37;100.00;100071.31;5032435;28;20457;-73
2022/09/12 08:04:46;;;;;;;6.65;4.55;;;;;;;17.57;100.00;100064.97;5031061;28;20077;-73
2022/09/12 08:07:14;;;;;;;6.15;4.15;;;;;;;17.62;100.00;100068.09;5032393;28;20049;-73
2022/09/12 08:09:44;;;;;;;5.82;3.80;;;;;;;17.58;100.00;100063.97;5030812;28;20415;-73
2022/09/12 08:12:15;;;;;;;8.02;4.43;;;;;;;17.46;100.00;100070.47;5032278;28;20045;-73
2022/09/12 08:14:43;;;;;;;6.38;3.80;;;;;;;17.50;100.00;100074.63;5032272;28;20038;-73
2022/09/12 08:17:13;;;;;;;6.00;4.30;;;;;;;17.56;100.00;100076.72;5032561;28;20041;-73
2022/09/12 08:19:42;;;;;;;8.05;4.38;;;;;;;17.74;100.00;100075.06;5031956;28;20060;-73
2022/09/12 08:22:11;;;;;;;6.60;3.90;;;;;;;17.68;100.00;100072.06;5031077;28;20042;-73
2022/09/12 08:24:39;;;;;;;6.80;4.20;;;;;;;17.74;100.00;100076.91;5031981;28;20038;-74
2022/09/12 08:27:08;;;;;;;7.85;4.65;;;;;;;17.82;100.00;100068.09;5035974;28;20547;-73
2022/09/12 08:29:37;;;;;;;8.02;4.75;;;;;;;17.92;100.00;100077.03;5034383;28;20049;-73
2022/09/12 08:32:05;;;;;;;7.82;4.68;;;;;;;18.07;100.00;100072.06;5034805;28;20199;-72
2022/09/12 08:34:34;;;;;;;6.63;4.07;;;;;;;18.17;100.00;100056.72;5034099;28;20056;-73
2022/09/12 08:37:02;;;;;;;7.68;4.13;;;;;;;18.20;100.00;100065.34;5034410;28;20463;-73
2022/09/12 08:39:31;;;;;;;5.80;4.05;;;;;;;18.34;100.00;100068.63;5035032;28;20451;-75
2022/09/12 08:42:02;;;;;;;6.50;4.32;;;;;;;18.42;100.00;100066.00;5035310;28;20045;-74
2022/09/12 08:44:57;;;;;;;8.98;4.47;;;;;;;18.35;100.00;100064.91;5033630;28;20046;-74
2022/09/12 08:47:28;;;;;;;5.93;3.60;;;;;;;18.38;100.00;100057.34;5034669;28;20041;-74
2022/09/12 08:50:11;;;;;;;6.78;4.10;;;;;;;18.47;100.00;100055.63;5034222;28;20483;-74
2022/09/12 08:52:47;;;;;;;6.88;4.03;;;;;;;18.57;100.00;100060.00;5049645;28;20045;-74
2022/09/12 08:55:25;;;;;;;6.30;4.03;;;;;;;18.68;100.00;100061.69;5034738;28;20052;-75
2022/09/12 08:57:54;;;;;;;6.78;3.85;;;;;;;18.70;100.00;100059.69;5033555;28;20041;-74
2022/09/12 09:00:31;;;;;;;8.05;3.67;;;;;;;18.79;100.00;100066.88;5034610;28;20107;-74
2022/09/12 09:03:25;;;;;;;9.98;3.92;;;;;;;19.07;100.00;100069.59;5035050;28;20124;-74
2022/09/12 09:06:00;;;;;;;5.68;3.78;;;;;;;18.88;100.00;100063.28;5005394;28;20057;-75
2022/09/12 09:08:57;;;;;;;5.30;3.22;;;;;;;18.96;100.00;100059.00;5035270;28;20057;-74
2022/09/12 09:11:39;;;;;;;6.53;3.90;;;;;;;19.15;100.00;100059.72;5017422;28;20046;-75
2022/09/12 09:17:25;;;;;;;5.07;3.30;;;;;;;19.24;100.00;100036.34;4974253;28;20443;-75
2022/09/12 09:20:01;;;;;;;5.68;3.00;;;;;;;19.45;100.00;100044.16;5018911;28;20515;-75
2022/09/12 09:22:38;;;;;;;6.55;3.47;;;;;;;19.84;100.00;100044.69;5033817;28;20088;-75
2022/09/12 09:25:13;;;;;;;6.30;3.15;;;;;;;19.74;100.00;100049.34;5050490;28;20428;-75
2022/09/12 09:27:46;;;;;;;5.88;3.88;;;;;;;19.74;100.00;100065.59;5035110;28;20095;-75
2022/09/12 09:30:16;;;;;;;4.75;3.08;;;;;;;19.76;100.00;100057.31;5035055;28;20488;-74
2022/09/12 09:32:52;;;;;;;6.45;2.95;;;;;;;19.77;100.00;100051.72;5034820;28;20412;-75
2022/09/12 09:35:30;;;;;;;6.22;3.10;;;;;;;19.77;100.00;100049.03;5033894;28;20049;-75
2022/09/12 09:38:15;;;;;;;6.65;3.30;;;;;;;19.64;100.00;100046.72;5034878;28;20128;-75
2022/09/12 09:40:49;;;;;;;5.20;3.17;;;;;;;19.93;100.00;100040.19;5033289;28;20050;-75
2022/09/12 09:43:22;;;;;;;4.90;2.90;;;;;;;19.88;100.00;100054.22;5034637;28;20399;-75
2022/09/12 09:45:52;;;;;;;4.53;2.75;;;;;;;19.75;100.00;100045.63;5034539;28;20100;-75
2022/09/12 09:48:24;;;;;;;5.90;2.90;;;;;;;19.70;100.00;100047.97;5033217;28;20060;-74
2022/09/12 09:50:53;;;;;;;4.65;2.80;;;;;;;19.83;100.00;100048.41;5034536;28;20045;-75
2022/09/12 09:53:33;;;;;;;3.85;2.45;;;;;;;20.19;100.00;100070.00;5034513;28;20060;-75
2022/09/12 09:56:06;;;;;;;4.03;2.22;;;;;;;19.99;100.00;100055.81;5034171;28;20045;-75
2022/09/12 09:58:35;;;;;;;5.05;2.15;;;;;;;19.83;100.00;100024.06;5032835;28;20133;-75
2022/09/12 10:01:06;;;;;;;4.85;2.53;;;;;;;20.00;100.00;100044.84;5034352;28;20120;-75
2022/09/12 10:03:39;;;;;;;5.45;2.53;;;;;;;19.85;100.00;100043.69;5032947;28;20099;-74
2022/09/12 10:06:22;;;;;;;6.55;2.85;;;;;;;20.13;100.00;100044.41;5034493;28;20435;-75
2022/09/12 10:08:50;;;;;;;4.47;2.55;;;;;;;20.02;100.00;100045.53;5033925;28;20141;-75
2022/09/12 10:11:21;;;;;;;3.42;2.08;;;;;;;20.09;100.00;100037.63;5032477;28;20124;-75
2022/09/12 10:13:55;;;;;;;4.75;2.70;;;;;;;20.33;100.00;100044.19;5032500;28;20045;-75
2022/09/12 10:16:26;;;;;;;5.75;2.38;;;;;;;20.25;100.00;100031.44;5033924;28;20087;-75
2022/09/12 10:18:57;;;;;;;4.28;2.60;;;;;;;20.21;96.87;100032.78;5032193;28;20065;-74
2022/09/12 10:21:31;;;;;;;3.63;2.17;;;;;;;19.98;93.92;100046.00;5033479;28;20041;-74
2022/09/12 10:24:14;;;;;;;4.10;2.72;;;;;;;19.91;90.75;100039.50;5033169;28;20053;-75
2022/09/12 10:26:48;;;;;;;3.55;2.28;;;;;;;19.78;89.53;100039.91;5033157;28;20041;-75
2022/09/12 10:29:27;;;;;;;3.60;2.33;;;;;;;19.77;87.89;100054.44;5031873;28;20049;-74
2022/09/12 10:32:06;;;;;;;3.10;2.15;;;;;;;19.85;85.63;100061.78;5032929;28;20042;-75
2022/09/12 10:34:41;;;;;;;4.75;2.40;;;;;;;19.78;83.93;100064.25;5032917;28;20046;-75
2022/09/12 10:37:17;;;;;;;5.68;2.25;;;;;;;19.76;83.45;100041.91;5033099;28;20404;-75
2022/09/12 10:39:52;;;;;;;4.05;2.35;;;;;;;19.75;82.34;100051.03;5032707;28;20451;-75
2022/09/12 10:42:49;;;;;;;4.30;2.20;;;;;;;19.96;80.35;100048.84;5032836;28;20049;-75
2022/09/12 10:45:27;;;;;;;3.90;2.30;;;;;;;20.05;78.98;100043.50;5031630;28;20076;-75
2022/09/12 10:47:58;;;;;;;5.22;2.47;;;;;;;20.00;79.72;100044.84;5033210;28;20397;-75
2022/09/12 10:50:36;;;;;;;3.90;2.30;;;;;;;19.90;77.53;100048.66;5031533;28;20053;-79
2022/09/12 10:53:19;;;;;;;4.28;2.40;;;;;;;19.76;77.67;100041.91;5033250;28;20057;-75
2022/09/12 10:56:02;;;;;;;5.20;2.28;;;;;;;19.82;77.06;100051.28;5033342;28;20046;-75
2022/09/12 10:58:52;;;;;;;3.35;2.22;;;;;;;19.96;77.16;100043.44;5033386;28;20045;-75
2022/09/12 11:01:36;;;;;;;3.78;2.00;;;;;;;19.99;75.89;100039.59;5033569;28;20056;-75
2022/09/12 11:04:46;;;;;;;5.57;2.63;;;;;;;20.33;75.07;100031.50;5033449;28;20046;-75
2022/09/12 11:07:29;;;;;;;3.25;2.15;;;;;;;20.55;74.32;100025.56;4955967;28;20102;-75
2022/09/12 11:10:07;;;;;;;5.03;2.40;;;;;;;20.60;75.00;100035.06;4956011;28;20093;-75
2022/09/12 11:12:43;;;;;;;4.65;2.22;;;;;;;20.48;75.43;100026.38;5013447;28;20393;-75
2022/09/12 11:15:35;;;;;;;4.38;2.17;;;;;;;20.32;75.04;100032.50;5032113;28;20463;-75
2022/09/12 11:18:17;;;;;;;3.63;2.40;;;;;;;20.25;74.63;100023.31;5033029;28;20060;-75
2022/09/12 11:21:09;;;;;;;4.47;2.50;;;;;;;20.18;74.32;100017.72;5032991;28;20484;-75
2022/09/12 11:24:01;;;;;;;4.38;2.40;;;;;;;20.16;72.95;100021.56;5031555;28;20420;-75
2022/09/12 11:26:43;;;;;;;4.40;1.92;;;;;;;19.98;72.98;100019.78;5031373;28;20419;-75
2022/09/12 11:29:20;;;;;;;4.13;2.33;;;;;;;20.25;72.70;100015.19;5033109;28;20389;-75
2022/09/12 11:32:10;;;;;;;3.88;2.22;;;;;;;20.49;72.47;100018.09;5031595;28;20049;-75
2022/09/12 11:34:49;;;;;;;3.28;2.05;;;;;;;20.94;68.41;100021.47;5032387;28;20045;-75
2022/09/12 11:37:42;;;;;;;4.03;2.10;;;;;;;20.89;67.83;100019.28;5047823;28;20566;-75
2022/09/12 11:40:27;;;;;;;4.53;2.13;;;;;;;20.91;64.54;100027.25;5031513;28;20136;-75
2022/09/12 11:43:03;;;;;;;3.42;2.20;;;;;;;20.72;60.30;100022.94;5032335;28;20038;-75
2022/09/12 11:45:38;;;;;;;4.07;2.00;;;;;;;20.56;60.25;100023.72;5031409;28;20473;-75
2022/09/12 11:48:13;;;;;;;2.53;1.70;;;;;;;20.26;60.45;100001.50;5032803;28;20488;-74
2022/09/12 11:50:41;;;;;;;4.40;2.10;;;;;;;20.31;61.18;100030.81;5032354;28;20446;-75
2022/09/12 11:53:16;;;;;;;4.15;1.77;;;;;;;20.26;59.69;100012.31;5032354;28;20053;-75